Time;durP1;ratioP1;P1;durP2;ratioP2;P2;SDS_P1;SDS_P2;PMS_P1;PMS_P2;Temp;Humidity;BMP_temperature;BMP_pressure;BME280_temperature;BME280_humidity;BME280_pressure;Samples;Min_cycle;Max_cycle;Signal;HPM_P1;HPM_P2
2022/11/06 00:01:36;;;;;;;6.55;4.57;;;10.50;99.90;;;;;;5073974;28;20215;-82
2022/11/06 00:04:06;;;;;;;8.38;5.05;;;10.50;99.90;;;;;;5093360;28;20302;-77
2022/11/06 00:06:48;;;;;;;7.32;5.35;;;10.50;99.90;;;;;;5080247;28;20266;-81
2022/11/06 00:09:19;;;;;;;10.00;5.57;;;10.50;99.90;;;;;;5072400;28;20700;-77
2022/11/06 00:11:49;;;;;;;11.55;5.03;;;10.50;99.90;;;;;;5085088;28;20220;-77
2022/11/06 00:14:16;;;;;;;4.53;4.10;;;10.50;99.90;;;;;;5076448;28;20228;-81
2022/11/06 00:16:44;;;;;;;6.75;4.93;;;10.50;99.90;;;;;;5072823;28;20211;-81
2022/11/06 00:19:14;;;;;;;7.60;5.25;;;10.50;99.90;;;;;;5072506;28;20629;-76
2022/11/06 00:21:41;;;;;;;8.75;5.75;;;10.50;99.90;;;;;;5077873;28;20288;-77
2022/11/06 00:24:09;;;;;;;10.20;5.45;;;10.50;99.90;;;;;;5082126;28;20650;-79
2022/11/06 00:26:44;;;;;;;6.75;5.40;;;10.50;99.90;;;;;;5072514;28;20220;-79
2022/11/06 00:29:15;;;;;;;8.38;6.70;;;10.40;99.90;;;;;;5086787;28;20219;-77
2022/11/06 00:31:43;;;;;;;5.50;5.00;;;10.40;99.90;;;;;;5075862;28;20538;-80
2022/11/06 00:34:11;;;;;;;14.02;5.68;;;10.30;99.90;;;;;;5088879;28;20223;-81
2022/11/06 00:36:38;;;;;;;9.70;6.40;;;10.30;99.90;;;;;;5061915;28;20236;-80
2022/11/06 00:39:05;;;;;;;8.35;5.95;;;10.30;99.90;;;;;;5072164;28;20231;-81
2022/11/06 00:41:33;;;;;;;8.07;6.50;;;10.30;99.90;;;;;;5088141;28;20243;-80
2022/11/06 00:44:01;;;;;;;7.25;6.57;;;10.20;99.90;;;;;;5081063;28;20242;-75
2022/11/06 00:46:33;;;;;;;10.25;4.88;;;10.20;99.90;;;;;;5079013;28;20239;-80
2022/11/06 00:49:00;;;;;;;5.35;4.85;;;10.20;99.90;;;;;;5090286;28;20528;-80
2022/11/06 00:51:31;;;;;;;7.72;5.60;;;10.20;99.90;;;;;;5074296;28;20319;-80
2022/11/06 00:54:02;;;;;;;7.55;5.50;;;10.20;99.90;;;;;;5072881;28;20247;-80
2022/11/06 00:56:31;;;;;;;6.00;5.40;;;10.10;99.90;;;;;;5071903;28;20248;-76
2022/11/06 00:59:00;;;;;;;6.05;5.45;;;10.10;99.90;;;;;;5085886;28;20227;-76
2022/11/06 01:01:30;;;;;;;8.70;5.40;;;10.10;99.90;;;;;;5072471;28;20228;-76
2022/11/06 01:03:58;;;;;;;7.80;5.43;;;10.10;99.90;;;;;;5075597;28;20231;-80
2022/11/06 01:06:28;;;;;;;8.07;5.65;;;10.00;99.90;;;;;;5082488;28;20576;-80
2022/11/06 01:08:56;;;;;;;8.15;6.13;;;9.90;99.90;;;;;;5075640;28;20640;-80
2022/11/06 01:11:25;;;;;;;9.15;5.80;;;9.90;99.90;;;;;;5072760;28;20281;-81
2022/11/06 01:13:57;;;;;;;7.65;6.05;;;9.90;99.90;;;;;;5077118;28;20215;-80
2022/11/06 01:16:25;;;;;;;6.55;5.70;;;9.90;99.90;;;;;;5081565;28;20224;-82
2022/11/06 01:18:54;;;;;;;6.97;5.40;;;9.90;99.90;;;;;;5073310;28;20239;-80
2022/11/06 01:21:29;;;;;;;7.70;6.90;;;9.90;99.90;;;;;;5072504;28;20297;-80
2022/11/06 01:24:00;;;;;;;12.73;6.20;;;9.90;99.90;;;;;;5078911;28;20226;-76
2022/11/06 01:26:37;;;;;;;6.28;5.35;;;9.90;99.90;;;;;;5078097;28;20248;-76
2022/11/06 01:29:05;;;;;;;6.20;5.20;;;9.90;99.90;;;;;;5072392;28;20291;-80
2022/11/06 01:31:34;;;;;;;9.10;5.40;;;9.90;99.90;;;;;;5087066;28;20222;-76
2022/11/06 01:34:06;;;;;;;7.03;5.82;;;9.90;99.90;;;;;;5084159;28;20223;-80
2022/11/06 01:36:33;;;;;;;15.43;6.18;;;9.90;99.90;;;;;;5079094;28;20219;-80
2022/11/06 01:39:09;;;;;;;5.88;5.25;;;9.90;99.90;;;;;;5085627;28;20321;-80
2022/11/06 01:41:39;;;;;;;9.73;6.18;;;9.90;99.90;;;;;;5089291;28;20242;-80
2022/11/06 01:44:22;;;;;;;13.15;5.90;;;9.90;99.90;;;;;;5075861;28;20293;-80
2022/11/06 01:46:49;;;;;;;5.57;5.00;;;9.90;99.90;;;;;;5072115;28;20306;-77
2022/11/06 01:49:18;;;;;;;6.78;5.70;;;9.80;99.90;;;;;;5087107;28;20266;-80
2022/11/06 01:51:52;;;;;;;8.30;5.72;;;9.80;99.90;;;;;;5083663;28;20253;-79
2022/11/06 01:54:21;;;;;;;6.63;6.03;;;9.90;99.90;;;;;;5072831;28;20231;-80
2022/11/06 01:56:52;;;;;;;7.75;5.78;;;9.80;99.90;;;;;;5071683;28;20224;-77
2022/11/06 01:59:22;;;;;;;8.77;5.78;;;9.80;99.90;;;;;;5082431;28;20311;-76
2022/11/06 02:01:54;;;;;;;5.50;5.00;;;9.80;99.90;;;;;;5077492;28;20274;-80
2022/11/06 02:04:27;;;;;;;8.13;5.65;;;9.80;99.90;;;;;;5079954;28;20252;-80
2022/11/06 02:07:02;;;;;;;11.15;8.00;;;9.80;99.90;;;;;;5075737;28;20310;-79
2022/11/06 02:09:32;;;;;;;7.95;7.15;;;9.80;99.90;;;;;;5072109;28;20250;-79
2022/11/06 02:12:03;;;;;;;7.43;6.20;;;9.70;99.90;;;;;;5084434;28;20559;-76
2022/11/06 02:14:40;;;;;;;9.27;6.07;;;9.70;99.90;;;;;;5077178;28;20220;-76
2022/11/06 02:17:15;;;;;;;8.70;7.55;;;9.70;99.90;;;;;;5087352;28;20252;-79
2022/11/06 02:20:01;;;;;;;7.85;5.80;;;9.70;99.90;;;;;;5067532;28;20311;-80
2022/11/06 02:23:00;;;;;;;7.28;6.57;;;9.70;99.90;;;;;;5064251;28;20350;-79
2022/11/06 02:25:45;;;;;;;6.82;6.18;;;9.70;99.90;;;;;;5064774;28;20220;-79
2022/11/06 02:28:20;;;;;;;9.35;7.25;;;9.70;99.90;;;;;;5087071;28;20309;-76
2022/11/06 02:30:51;;;;;;;12.15;7.00;;;9.70;99.90;;;;;;5095700;28;20245;-76
2022/11/06 02:33:23;;;;;;;11.77;6.20;;;9.70;99.90;;;;;;5088717;28;20228;-76
2022/11/06 02:35:53;;;;;;;9.02;6.28;;;9.70;99.90;;;;;;5075150;28;20224;-76
2022/11/06 02:38:25;;;;;;;7.40;6.55;;;9.60;99.90;;;;;;5089222;28;20220;-75
2022/11/06 02:40:56;;;;;;;5.57;5.05;;;9.60;99.90;;;;;;5091682;28;20231;-76
2022/11/06 02:43:31;;;;;;;8.68;6.28;;;9.60;99.90;;;;;;5095275;28;20234;-77
2022/11/06 02:46:04;;;;;;;9.50;7.72;;;9.60;99.90;;;;;;5077716;28;20276;-80
2022/11/06 02:48:37;;;;;;;11.88;6.18;;;9.50;99.90;;;;;;5079600;28;20323;-77
2022/11/06 02:51:06;;;;;;;11.77;8.55;;;9.50;99.90;;;;;;5091767;28;20215;-77
2022/11/06 02:53:35;;;;;;;7.38;6.20;;;9.50;99.90;;;;;;5077596;28;20247;-79
2022/11/06 02:56:07;;;;;;;10.65;6.93;;;9.50;99.90;;;;;;5092492;28;20249;-80
2022/11/06 02:58:41;;;;;;;10.40;7.03;;;9.50;99.90;;;;;;5095650;28;20677;-80
2022/11/06 03:01:19;;;;;;;12.40;5.93;;;9.50;99.90;;;;;;5095603;28;20622;-77
2022/11/06 03:03:51;;;;;;;8.57;7.78;;;9.60;99.90;;;;;;5083492;28;20309;-79
2022/11/06 03:06:27;;;;;;;8.23;7.20;;;9.60;99.90;;;;;;5081574;28;20281;-80
2022/11/06 03:08:59;;;;;;;7.50;6.75;;;9.60;99.90;;;;;;5085307;28;20289;-79
2022/11/06 03:11:29;;;;;;;7.40;6.70;;;9.50;99.90;;;;;;5092582;28;20287;-80
2022/11/06 03:14:03;;;;;;;9.88;7.28;;;9.50;99.90;;;;;;5094409;28;20273;-76
2022/11/06 03:16:45;;;;;;;7.65;6.25;;;9.50;99.90;;;;;;5081940;28;20306;-77
2022/11/06 03:19:21;;;;;;;6.25;5.70;;;9.50;99.90;;;;;;5093738;28;20276;-80
2022/11/06 03:22:01;;;;;;;8.50;6.80;;;9.50;99.90;;;;;;5084108;28;20272;-77
2022/11/06 03:24:33;;;;;;;8.38;6.57;;;9.50;99.90;;;;;;5091516;28;20296;-76
2022/11/06 03:27:07;;;;;;;6.82;6.05;;;9.50;99.90;;;;;;5076286;28;20240;-76
2022/11/06 03:29:41;;;;;;;8.30;6.30;;;9.50;99.90;;;;;;5085248;28;20239;-79
2022/11/06 03:32:13;;;;;;;8.20;6.53;;;9.50;99.90;;;;;;5081115;28;20232;-78
2022/11/06 03:34:45;;;;;;;8.48;6.18;;;9.50;99.90;;;;;;5085276;28;20729;-79
2022/11/06 03:37:16;;;;;;;9.65;6.78;;;9.50;99.90;;;;;;5086898;28;20273;-79
2022/11/06 03:39:51;;;;;;;13.18;8.50;;;9.50;99.90;;;;;;5084327;28;20234;-79
2022/11/06 03:42:22;;;;;;;9.20;6.50;;;9.50;99.90;;;;;;5090066;28;20294;-78
2022/11/06 03:44:56;;;;;;;8.90;6.45;;;9.50;99.90;;;;;;5086184;28;20227;-80
2022/11/06 03:47:27;;;;;;;12.15;7.38;;;9.50;99.90;;;;;;5088122;28;20216;-80
2022/11/06 03:49:57;;;;;;;9.15;6.82;;;9.50;99.90;;;;;;5087597;28;20242;-79
2022/11/06 03:52:30;;;;;;;9.60;7.50;;;9.50;99.90;;;;;;5091189;28;20219;-76
2022/11/06 03:55:02;;;;;;;6.97;6.00;;;9.50;99.90;;;;;;5080576;28;20231;-77
2022/11/06 03:57:35;;;;;;;7.60;6.13;;;9.40;99.90;;;;;;5079866;28;20243;-80
2022/11/06 04:00:08;;;;;;;9.77;6.78;;;9.40;99.90;;;;;;5094170;28;20251;-76
2022/11/06 04:02:38;;;;;;;11.32;7.32;;;9.40;99.90;;;;;;5079903;28;20219;-76
2022/11/06 04:05:10;;;;;;;9.82;6.80;;;9.40;99.90;;;;;;5094345;28;20227;-80
2022/11/06 04:07:41;;;;;;;7.40;6.70;;;9.30;99.90;;;;;;5080538;28;20223;-76
2022/11/06 04:15:49;;;;;;;9.38;6.63;;;9.30;99.90;;;;;;5094319;28;20222;-77
2022/11/06 04:18:18;;;;;;;10.40;8.15;;;9.30;99.90;;;;;;5079479;28;20282;-80
2022/11/06 04:26:34;;;;;;;9.55;6.88;;;9.30;99.90;;;;;;5091191;28;20229;-77
2022/11/06 04:26:41;;;;;;;9.00;6.57;;;9.30;99.90;;;;;;5080140;28;20216;-77
2022/11/06 04:29:17;;;;;;;7.07;6.05;;;9.30;99.90;;;;;;5083056;28;20219;-80
2022/11/06 04:31:56;;;;;;;8.95;6.32;;;9.40;99.90;;;;;;5078199;28;20223;-78
2022/11/06 04:34:32;;;;;;;9.65;6.22;;;9.40;99.90;;;;;;5094022;28;20219;-80
2022/11/06 04:37:06;;;;;;;8.45;6.82;;;9.40;99.90;;;;;;5081162;28;20276;-80
2022/11/06 04:39:44;;;;;;;7.45;6.57;;;9.30;99.90;;;;;;5079869;28;20219;-78
2022/11/06 04:42:17;;;;;;;7.43;6.20;;;9.30;99.90;;;;;;5081883;28;20269;-76
2022/11/06 04:44:48;;;;;;;9.82;7.50;;;9.30;99.90;;;;;;5091671;28;20729;-77
2022/11/06 04:47:20;;;;;;;6.95;5.82;;;9.30;99.90;;;;;;5080380;28;20372;-79
2022/11/06 04:49:50;;;;;;;7.60;6.80;;;9.30;99.90;;;;;;5086687;28;20224;-79
2022/11/06 04:52:22;;;;;;;7.72;6.93;;;9.20;99.90;;;;;;5086688;28;20733;-79
2022/11/06 04:54:49;;;;;;;8.85;7.95;;;9.20;99.90;;;;;;5079622;28;20306;-79
2022/11/06 04:57:16;;;;;;;6.72;5.95;;;9.20;99.90;;;;;;5078581;28;20224;-76
2022/11/06 04:59:43;;;;;;;7.85;7.00;;;9.20;99.90;;;;;;5078427;28;20227;-76
2022/11/06 05:02:11;;;;;;;9.65;6.78;;;9.20;99.90;;;;;;5089732;28;20227;-76
2022/11/06 05:04:39;;;;;;;8.15;6.72;;;9.20;99.90;;;;;;5092959;28;20223;-76
2022/11/06 05:07:06;;;;;;;8.30;6.35;;;9.10;99.90;;;;;;5078455;28;20624;-79
2022/11/06 05:09:36;;;;;;;10.25;6.68;;;9.20;99.90;;;;;;5081115;28;20224;-76
2022/11/06 05:12:05;;;;;;;9.88;7.28;;;9.10;99.90;;;;;;5070742;28;20314;-76
2022/11/06 05:14:32;;;;;;;9.80;6.97;;;9.10;99.90;;;;;;5072310;28;20223;-77
2022/11/06 05:17:00;;;;;;;8.55;6.75;;;9.10;99.90;;;;;;5071348;28;20248;-76
2022/11/06 05:19:27;;;;;;;8.43;6.28;;;9.10;99.90;;;;;;5072711;28;20376;-79
2022/11/06 05:24:40;;;;;;;7.68;6.97;;;9.00;99.90;;;;;;5072813;28;20226;-76
2022/11/06 05:27:07;;;;;;;7.72;6.45;;;9.00;99.90;;;;;;5072851;28;20223;-80
2022/11/06 05:29:34;;;;;;;8.43;6.13;;;9.00;99.90;;;;;;5072228;28;20669;-76
2022/11/06 05:32:01;;;;;;;9.75;6.50;;;9.00;99.90;;;;;;5061096;28;20223;-79
2022/11/06 05:34:28;;;;;;;7.50;6.70;;;9.00;99.90;;;;;;5072782;28;20337;-80
2022/11/06 05:36:57;;;;;;;7.60;6.70;;;8.90;99.90;;;;;;5071667;28;20597;-76
2022/11/06 05:39:24;;;;;;;7.35;6.60;;;8.90;99.90;;;;;;5072619;28;20244;-76
2022/11/06 05:41:51;;;;;;;7.47;6.65;;;8.90;99.90;;;;;;5071699;28;20299;-80
2022/11/06 05:44:18;;;;;;;10.73;6.47;;;8.90;99.90;;;;;;5072594;28;20231;-76
2022/11/06 05:46:45;;;;;;;8.65;6.70;;;8.90;99.90;;;;;;5072034;28;20569;-77
2022/11/06 05:49:12;;;;;;;10.05;6.80;;;8.90;99.90;;;;;;5072665;28;20299;-76
2022/11/06 05:51:39;;;;;;;9.30;6.85;;;8.90;99.90;;;;;;5072683;28;20409;-79
2022/11/06 05:54:07;;;;;;;9.07;7.28;;;8.90;99.90;;;;;;5071707;28;20216;-77
2022/11/06 05:56:34;;;;;;;6.60;5.90;;;8.90;99.90;;;;;;5072619;28;20240;-76
2022/11/06 05:59:01;;;;;;;7.32;6.60;;;8.90;99.90;;;;;;5074995;28;20285;-81
2022/11/06 06:01:29;;;;;;;9.05;7.03;;;8.90;99.90;;;;;;5076352;28;20299;-80
2022/11/06 06:03:56;;;;;;;7.75;6.50;;;8.90;99.90;;;;;;5076039;28;20278;-76
2022/11/06 06:06:23;;;;;;;7.60;6.25;;;8.90;99.90;;;;;;5076409;28;20224;-75
2022/11/06 06:08:50;;;;;;;9.32;6.50;;;8.90;99.90;;;;;;5075125;28;20220;-77
2022/11/06 06:11:18;;;;;;;7.97;7.15;;;8.90;99.90;;;;;;5076258;28;20247;-80
2022/11/06 06:13:46;;;;;;;8.65;6.82;;;8.90;99.90;;;;;;5066583;28;20240;-79
2022/11/06 06:16:14;;;;;;;10.98;7.70;;;8.90;99.90;;;;;;5075850;28;20666;-77
2022/11/06 06:18:41;;;;;;;12.75;8.00;;;8.90;99.90;;;;;;5066026;28;20227;-80
2022/11/06 06:21:08;;;;;;;12.13;9.85;;;8.90;99.90;;;;;;5074786;28;20539;-80
2022/11/06 06:23:36;;;;;;;17.38;10.88;;;8.90;99.90;;;;;;5075207;28;20236;-80
2022/11/06 06:26:03;;;;;;;15.45;11.40;;;8.90;99.90;;;;;;5074628;28;20224;-80
2022/11/06 06:28:32;;;;;;;10.85;8.10;;;8.80;99.90;;;;;;5076039;28;20230;-78
2022/11/06 06:30:59;;;;;;;7.55;6.05;;;8.80;99.90;;;;;;5075109;28;20290;-81
2022/11/06 06:33:27;;;;;;;10.18;6.72;;;8.80;99.90;;;;;;5076256;28;20236;-79
2022/11/06 06:35:54;;;;;;;10.07;7.15;;;8.80;99.90;;;;;;5074953;28;20248;-80
2022/11/06 06:38:21;;;;;;;9.18;6.57;;;8.80;99.90;;;;;;5075604;28;20275;-81
2022/11/06 06:40:50;;;;;;;8.20;6.82;;;8.80;99.90;;;;;;5075188;28;20220;-77
2022/11/06 06:43:17;;;;;;;6.88;6.07;;;8.70;99.90;;;;;;5075877;28;20232;-79
2022/11/06 06:45:57;;;;;;;8.98;6.40;;;8.70;99.90;;;;;;5074654;28;20258;-79
2022/11/06 06:48:24;;;;;;;10.68;6.53;;;8.80;99.90;;;;;;5075221;28;20696;-76
2022/11/06 06:50:52;;;;;;;7.63;6.82;;;8.60;99.90;;;;;;5075295;28;20277;-76
2022/11/06 06:53:19;;;;;;;9.77;7.15;;;8.70;99.90;;;;;;5074367;28;20231;-77
2022/11/06 06:55:46;;;;;;;5.93;5.30;;;8.70;99.90;;;;;;5076258;28;20609;-80
2022/11/06 06:58:13;;;;;;;8.73;7.40;;;8.80;99.90;;;;;;5075779;28;20251;-81
2022/11/06 07:00:40;;;;;;;8.70;7.22;;;8.80;99.90;;;;;;5075091;28;20239;-81
2022/11/06 07:03:10;;;;;;;8.55;6.05;;;8.80;99.90;;;;;;5074594;28;20287;-81
2022/11/06 07:05:38;;;;;;;10.25;7.32;;;8.80;99.90;;;;;;5075930;28;20315;-76
2022/11/06 07:08:05;;;;;;;9.50;7.20;;;8.80;99.90;;;;;;5074181;28;20262;-79
2022/11/06 07:10:32;;;;;;;11.00;8.00;;;8.90;99.90;;;;;;5075090;28;20220;-79
2022/11/06 07:13:01;;;;;;;9.38;7.60;;;8.90;99.90;;;;;;5074770;28;20601;-76
2022/11/06 07:15:28;;;;;;;8.70;7.80;;;8.90;99.90;;;;;;5074209;28;20220;-79
2022/11/06 07:18:01;;;;;;;8.43;7.55;;;8.90;99.90;;;;;;5075424;28;20277;-77
2022/11/06 07:20:29;;;;;;;7.22;6.53;;;8.80;99.90;;;;;;5064119;28;20581;-78
2022/11/06 07:22:57;;;;;;;8.32;6.03;;;8.90;99.90;;;;;;5074583;28;20311;-77
2022/11/06 07:25:26;;;;;;;9.40;7.20;;;8.90;99.90;;;;;;5074496;28;20228;-80
2022/11/06 07:27:54;;;;;;;9.45;7.20;;;9.00;99.90;;;;;;5075043;28;20219;-76
2022/11/06 07:30:23;;;;;;;8.95;7.30;;;9.00;99.90;;;;;;5074050;28;20224;-80
2022/11/06 07:32:52;;;;;;;7.88;7.07;;;9.00;99.90;;;;;;5073528;28;20278;-79
2022/11/06 07:35:19;;;;;;;12.40;8.55;;;9.10;99.90;;;;;;5074391;28;20306;-77
2022/11/06 07:37:47;;;;;;;12.05;7.80;;;9.10;99.90;;;;;;5074130;28;20311;-77
2022/11/06 07:40:14;;;;;;;9.73;7.35;;;9.10;99.90;;;;;;5074170;28;20281;-80
2022/11/06 07:42:41;;;;;;;9.18;7.15;;;9.10;99.90;;;;;;5074205;28;20319;-80
2022/11/06 07:45:09;;;;;;;7.68;6.80;;;9.20;99.90;;;;;;5074959;28;20227;-77
2022/11/06 07:47:36;;;;;;;9.52;7.40;;;9.20;99.90;;;;;;5074181;28;20220;-76
2022/11/06 07:50:06;;;;;;;8.45;7.35;;;9.20;99.90;;;;;;5074389;28;20226;-79
2022/11/06 07:52:34;;;;;;;11.45;7.70;;;9.30;99.90;;;;;;5073833;28;20227;-79
2022/11/06 07:55:02;;;;;;;10.25;7.60;;;9.30;99.90;;;;;;5074326;28;20274;-76
2022/11/06 07:57:32;;;;;;;11.20;6.93;;;9.30;99.90;;;;;;5073532;28;20232;-77
2022/11/06 07:59:59;;;;;;;12.38;7.47;;;9.40;99.90;;;;;;5073993;28;20247;-76
2022/11/06 08:02:30;;;;;;;11.18;6.45;;;9.40;99.90;;;;;;5073345;28;20323;-76
2022/11/06 08:04:57;;;;;;;7.25;6.63;;;9.50;99.90;;;;;;5073825;28;20690;-79
2022/11/06 08:07:24;;;;;;;7.32;6.38;;;9.50;99.90;;;;;;5073407;28;20306;-79
2022/11/06 08:09:51;;;;;;;6.90;6.20;;;9.50;99.90;;;;;;5074162;28;20243;-76
2022/11/06 08:12:19;;;;;;;8.38;7.07;;;9.60;99.90;;;;;;5073177;28;20278;-76
2022/11/06 08:14:46;;;;;;;9.55;8.23;;;9.60;99.90;;;;;;5073955;28;20239;-77
2022/11/06 08:17:13;;;;;;;8.35;7.50;;;9.60;99.90;;;;;;5074044;28;20261;-80
2022/11/06 08:19:40;;;;;;;9.80;8.02;;;9.70;99.90;;;;;;5072556;28;20231;-76
2022/11/06 08:22:07;;;;;;;8.60;6.95;;;9.70;99.90;;;;;;5073556;28;20672;-75
2022/11/06 08:24:34;;;;;;;11.70;8.45;;;9.70;99.90;;;;;;5073119;28;20310;-81
2022/11/06 08:27:02;;;;;;;8.48;7.25;;;9.80;99.90;;;;;;5073922;28;20302;-79
2022/11/06 08:29:30;;;;;;;6.40;5.80;;;9.80;99.90;;;;;;5073001;28;20227;-79
2022/11/06 08:31:57;;;;;;;8.15;6.95;;;9.90;99.90;;;;;;5073861;28;20274;-79
2022/11/06 08:34:24;;;;;;;14.77;9.45;;;9.90;99.90;;;;;;5072528;28;20247;-80
2022/11/06 08:36:52;;;;;;;9.55;8.10;;;9.90;99.90;;;;;;5074141;28;20255;-80
2022/11/06 08:39:19;;;;;;;10.80;8.50;;;10.00;99.90;;;;;;5073357;28;20311;-81
2022/11/06 08:41:46;;;;;;;10.52;8.10;;;10.00;99.90;;;;;;5073793;28;20220;-81
2022/11/06 08:44:15;;;;;;;9.52;8.50;;;10.00;99.90;;;;;;5073064;28;20274;-77
2022/11/06 08:46:44;;;;;;;9.13;7.20;;;10.10;99.90;;;;;;5073093;28;20273;-77
2022/11/06 08:49:11;;;;;;;14.25;9.23;;;10.20;99.90;;;;;;5073368;28;20274;-80
2022/11/06 08:51:38;;;;;;;9.98;8.32;;;10.20;99.90;;;;;;5063553;28;21768;-80
2022/11/06 08:54:05;;;;;;;8.90;8.10;;;10.20;99.90;;;;;;5073128;28;20258;-77
2022/11/06 08:56:32;;;;;;;13.43;8.05;;;10.30;99.90;;;;;;5072950;28;20228;-81
2022/11/06 08:59:00;;;;;;;11.10;8.80;;;10.30;99.90;;;;;;5075473;28;20220;-77
2022/11/06 09:01:32;;;;;;;18.98;11.68;;;10.40;99.90;;;;;;5078024;28;20228;-79
2022/11/06 09:04:04;;;;;;;10.45;8.63;;;10.40;99.90;;;;;;5079345;28;20232;-80
2022/11/06 09:06:32;;;;;;;13.25;9.48;;;10.40;99.90;;;;;;5075720;28;20228;-80
2022/11/06 09:08:59;;;;;;;10.90;9.15;;;10.40;99.90;;;;;;5075570;28;20239;-77
2022/11/06 09:11:26;;;;;;;9.88;8.13;;;10.50;99.90;;;;;;5074699;28;20250;-80
2022/11/06 09:13:53;;;;;;;8.77;7.50;;;10.60;99.90;;;;;;5073071;28;20236;-80
2022/11/06 09:16:20;;;;;;;8.68;7.72;;;10.60;99.90;;;;;;5073071;28;20231;-76
2022/11/06 09:18:47;;;;;;;8.20;7.40;;;10.60;99.90;;;;;;5072538;28;20646;-76
2022/11/06 09:21:16;;;;;;;7.22;6.53;;;10.70;99.90;;;;;;5062471;28;20251;-77
2022/11/06 09:23:44;;;;;;;7.72;6.85;;;10.80;99.90;;;;;;5072442;28;20227;-80
2022/11/06 09:26:13;;;;;;;12.63;7.70;;;10.90;99.90;;;;;;5073601;28;20254;-77
2022/11/06 09:28:40;;;;;;;9.43;8.52;;;10.90;99.90;;;;;;5072642;28;20239;-81
2022/11/06 09:31:08;;;;;;;10.40;7.03;;;10.90;99.90;;;;;;5073295;28;20316;-80
2022/11/06 09:33:36;;;;;;;9.75;7.20;;;10.90;99.90;;;;;;5071718;28;20323;-80
2022/11/06 09:36:04;;;;;;;7.35;6.50;;;11.00;99.90;;;;;;5071452;28;20289;-77
2022/11/06 09:38:32;;;;;;;8.77;5.85;;;11.00;99.90;;;;;;5072910;28;20262;-78
2022/11/06 09:41:01;;;;;;;7.68;6.30;;;11.10;99.90;;;;;;5072177;28;20228;-81
2022/11/06 09:43:45;;;;;;;7.07;6.35;;;11.20;99.90;;;;;;5071724;28;20631;-80
2022/11/06 09:46:23;;;;;;;9.90;7.72;;;11.20;99.90;;;;;;5072702;28;20288;-81
2022/11/06 09:48:55;;;;;;;9.35;7.50;;;11.20;99.90;;;;;;5071691;28;20645;-81
2022/11/06 09:51:33;;;;;;;13.40;8.85;;;11.30;99.90;;;;;;5072623;28;20258;-78
2022/11/06 09:54:10;;;;;;;11.35;8.00;;;11.40;99.90;;;;;;5072395;28;20266;-80
2022/11/06 09:56:40;;;;;;;10.65;7.60;;;11.40;99.90;;;;;;5062509;28;20258;-78
2022/11/06 09:59:12;;;;;;;8.18;7.20;;;11.50;99.90;;;;;;5071847;28;20220;-80
2022/11/06 10:01:43;;;;;;;9.65;8.18;;;11.50;99.90;;;;;;5072522;28;20273;-80
2022/11/06 10:04:21;;;;;;;9.23;6.78;;;11.50;99.90;;;;;;5072100;28;20299;-81
2022/11/06 10:06:49;;;;;;;8.32;6.90;;;11.60;99.90;;;;;;5072168;28;20220;-81
2022/11/06 10:09:18;;;;;;;7.50;6.43;;;11.60;99.90;;;;;;5072254;28;20303;-80
2022/11/06 10:12:17;;;;;;;11.55;8.00;;;11.70;99.90;;;;;;5069733;28;20216;-82
2022/11/06 10:18:05;;;;;;;13.45;7.40;;;11.70;99.90;;;;;;5048746;28;20220;-80
2022/11/06 10:20:40;;;;;;;8.38;6.45;;;11.60;99.90;;;;;;5072016;28;20219;-80
2022/11/06 10:23:19;;;;;;;13.02;7.88;;;11.70;99.90;;;;;;5072559;28;20235;-80
2022/11/06 10:26:00;;;;;;;13.07;8.07;;;11.70;99.90;;;;;;5072791;28;20216;-77
2022/11/06 10:28:45;;;;;;;10.65;6.72;;;11.70;99.90;;;;;;5073762;28;20239;-81
2022/11/06 10:31:21;;;;;;;11.30;7.80;;;11.70;99.90;;;;;;5067512;28;20224;-79
2022/11/06 10:33:57;;;;;;;14.00;9.05;;;11.80;99.90;;;;;;5071541;28;20228;-79
2022/11/06 10:36:29;;;;;;;10.73;7.20;;;11.70;99.90;;;;;;5071003;28;20246;-76
2022/11/06 10:38:59;;;;;;;10.20;7.78;;;11.80;99.90;;;;;;5071775;28;20220;-77
2022/11/06 10:41:33;;;;;;;6.72;6.07;;;11.80;99.90;;;;;;5071427;28;20573;-77
2022/11/06 10:44:05;;;;;;;11.30;7.43;;;11.90;99.90;;;;;;5074012;28;20223;-77
2022/11/06 10:46:39;;;;;;;9.13;7.38;;;11.90;99.90;;;;;;5074978;28;20297;-77
2022/11/06 10:49:15;;;;;;;6.90;6.28;;;12.00;99.90;;;;;;5075968;28;20223;-76
2022/11/06 10:52:00;;;;;;;11.75;7.95;;;12.00;99.90;;;;;;5075351;28;20239;-77
2022/11/06 10:54:38;;;;;;;14.57;10.43;;;12.00;99.90;;;;;;5074689;28;20224;-81
2022/11/06 10:57:21;;;;;;;9.65;7.47;;;12.00;99.90;;;;;;5075806;28;20254;-80
2022/11/06 10:59:51;;;;;;;8.88;6.75;;;12.00;99.90;;;;;;5074981;28;20220;-76
2022/11/06 11:02:29;;;;;;;12.50;8.60;;;12.10;99.90;;;;;;5075241;28;20270;-79
2022/11/06 11:04:57;;;;;;;13.20;11.00;;;12.10;99.90;;;;;;5075117;28;20254;-79
2022/11/06 11:07:26;;;;;;;14.90;7.03;;;12.10;99.90;;;;;;5075343;28;20220;-79
2022/11/06 11:09:53;;;;;;;7.50;6.70;;;12.00;99.90;;;;;;5065655;28;20236;-80
2022/11/06 11:12:24;;;;;;;10.00;8.68;;;12.00;99.90;;;;;;5074188;28;20220;-77
2022/11/06 11:15:10;;;;;;;7.30;6.60;;;12.10;99.90;;;;;;5074904;28;20220;-78
2022/11/06 11:17:40;;;;;;;6.88;5.95;;;12.20;99.90;;;;;;5074606;28;20231;-81
2022/11/06 11:20:31;;;;;;;5.50;4.90;;;12.20;99.90;;;;;;5075596;28;20632;-80
2022/11/06 11:23:14;;;;;;;5.28;4.78;;;12.30;99.90;;;;;;5074617;28;20255;-76
2022/11/06 11:25:43;;;;;;;5.32;4.75;;;12.30;99.90;;;;;;5074467;28;20244;-78
2022/11/06 11:28:27;;;;;;;7.38;6.68;;;12.40;99.90;;;;;;5075166;28;20224;-81
2022/11/06 11:30:57;;;;;;;11.65;7.45;;;12.40;99.90;;;;;;5074950;28;20228;-77
2022/11/06 11:33:26;;;;;;;7.57;5.35;;;12.40;99.90;;;;;;5075021;28;20251;-80
2022/11/06 11:35:54;;;;;;;11.00;8.25;;;12.50;99.90;;;;;;5074175;28;20702;-80
2022/11/06 11:38:22;;;;;;;6.93;5.80;;;12.50;99.90;;;;;;5074145;28;20731;-77
2022/11/06 11:40:50;;;;;;;7.70;5.35;;;12.50;99.90;;;;;;5074362;28;20231;-76
2022/11/06 11:43:24;;;;;;;7.30;5.65;;;12.50;99.90;;;;;;5073763;28;20228;-80
2022/11/06 11:46:15;;;;;;;8.35;5.00;;;12.50;99.90;;;;;;5073707;28;20223;-77
2022/11/06 11:48:44;;;;;;;5.32;4.82;;;12.40;99.90;;;;;;5074549;28;20277;-81
2022/11/06 11:51:16;;;;;;;5.50;4.90;;;12.40;99.90;;;;;;5074741;28;20677;-79
2022/11/06 11:53:43;;;;;;;5.07;4.53;;;12.50;99.90;;;;;;5073816;28;20227;-77
2022/11/06 11:56:24;;;;;;;8.57;7.65;;;12.50;99.90;;;;;;5073611;28;20292;-76
2022/11/06 11:58:55;;;;;;;6.50;4.90;;;12.50;99.90;;;;;;5074065;28;20307;-80
2022/11/06 12:01:35;;;;;;;5.78;5.18;;;12.40;99.90;;;;;;5074557;28;20220;-80
2022/11/06 12:04:16;;;;;;;5.85;5.25;;;12.50;99.90;;;;;;5073987;28;20718;-80
2022/11/06 12:06:53;;;;;;;5.85;5.25;;;12.50;99.90;;;;;;5073831;28;20223;-77
2022/11/06 12:09:20;;;;;;;4.20;3.55;;;12.60;99.90;;;;;;5065797;28;20223;-76
2022/11/06 12:11:48;;;;;;;10.07;8.77;;;12.60;99.90;;;;;;5072922;28;20216;-76
2022/11/06 12:14:33;;;;;;;8.27;6.93;;;12.70;99.90;;;;;;5073820;28;20220;-77
2022/11/06 12:17:08;;;;;;;5.88;5.05;;;12.70;99.90;;;;;;5074101;28;20220;-77
2022/11/06 12:19:37;;;;;;;4.82;4.35;;;12.70;99.90;;;;;;5074131;28;20742;-74
2022/11/06 12:22:11;;;;;;;5.38;4.88;;;12.80;99.90;;;;;;5073311;28;20255;-79
2022/11/06 12:24:46;;;;;;;6.40;4.75;;;12.80;99.90;;;;;;5074303;28;20519;-76
2022/11/06 12:27:17;;;;;;;4.57;4.18;;;12.80;99.90;;;;;;5073569;28;20212;-77
2022/11/06 12:29:48;;;;;;;4.65;4.25;;;12.80;99.90;;;;;;5073686;28;20243;-77
2022/11/06 12:32:26;;;;;;;4.13;3.83;;;12.90;99.90;;;;;;5073036;28;20402;-77
2022/11/06 12:35:02;;;;;;;3.95;3.40;;;12.90;99.90;;;;;;5072587;28;20263;-79
2022/11/06 12:37:39;;;;;;;4.05;3.40;;;12.90;99.90;;;;;;5073896;28;20291;-77
2022/11/06 12:40:19;;;;;;;11.98;9.05;;;12.90;99.90;;;;;;5073357;28;20247;-78
2022/11/06 12:43:00;;;;;;;11.02;8.25;;;12.90;99.90;;;;;;5074289;28;20639;-80
2022/11/06 12:45:44;;;;;;;7.28;5.47;;;13.00;99.90;;;;;;5074354;28;20243;-78
2022/11/06 12:48:23;;;;;;;6.57;5.32;;;13.00;99.90;;;;;;5074403;28;20262;-77
2022/11/06 12:50:55;;;;;;;6.45;5.20;;;13.00;99.90;;;;;;5073613;28;20223;-77
2022/11/06 12:53:37;;;;;;;5.60;4.60;;;13.10;99.90;;;;;;5073487;28;20328;-76
2022/11/06 12:56:15;;;;;;;5.57;4.20;;;13.00;99.90;;;;;;5073189;28;20231;-76
2022/11/06 12:59:01;;;;;;;5.57;3.60;;;13.00;99.90;;;;;;5073418;28;20281;-80
2022/11/06 13:01:51;;;;;;;7.47;4.27;;;13.00;99.90;;;;;;5074145;28;20220;-80
2022/11/06 13:04:46;;;;;;;4.38;3.97;;;13.00;99.90;;;;;;5071670;28;20553;-81
2022/11/06 13:07:48;;;;;;;4.85;3.95;;;13.00;99.90;;;;;;5072530;28;20616;-78
2022/11/06 13:10:30;;;;;;;5.10;3.70;;;13.00;99.90;;;;;;5072775;28;20231;-77
2022/11/06 13:13:12;;;;;;;7.35;3.92;;;13.10;99.90;;;;;;5072515;28;20227;-80
2022/11/06 13:15:46;;;;;;;4.78;3.40;;;13.10;99.90;;;;;;5072500;28;20291;-80
2022/11/06 13:18:20;;;;;;;7.35;3.45;;;13.00;99.90;;;;;;5073094;28;20277;-81
2022/11/06 13:20:52;;;;;;;6.47;4.22;;;13.00;99.90;;;;;;5074121;28;20244;-77
2022/11/06 13:23:25;;;;;;;5.80;4.15;;;13.00;99.90;;;;;;5072742;28;20305;-80
2022/11/06 13:26:00;;;;;;;8.65;5.13;;;13.00;99.90;;;;;;5073569;28;20223;-80
2022/11/06 13:28:35;;;;;;;3.47;2.92;;;13.00;99.90;;;;;;5072445;28;20370;-80